Ji_gui — V3WJ4 — position and weather

sailwx.info

Track history (hours):
 
Tides and Currents Weather Stations Pressure Air Temp Water Temp Dewpoint Dewpoint Depression Visibility Wind Speed Wind Dir Waves Ship Positions

Ji_gui

Last reported at 2018-Jan-21 15:00 UTC. Time now 2018-Jan-23 00:16 UTC.
Position N 33°12' E 132°05'.

Length 100 m; draft 5.9 m.

Type: Cargo ship. MMSI: 312889000.

Date/timePositionNaut miles runAvg speedWind from/ knotsBaromVisibWave heightAir tempDewpointWater temp
2018-Jan-21 15:00N 33°12' E 132°05'710.2
2018-Jan-21 14:19N 33°17' E 132°00'3 8.7
2018-Jan-21 13:56N 33°20' E 131°58'4 9.0
2018-Jan-21 13:30N 33°24' E 131°56'5 9.4
2018-Jan-21 13:00N 33°28' E 131°53'5 9.4
2018-Jan-21 12:30N 33°32' E 131°51'5 9.2
2018-Jan-21 12:00N 33°36' E 131°48'5 9.4
2018-Jan-21 11:30N 33°40' E 131°46'5 9.6
2018-Jan-21 11:00N 33°44' E 131°43'4 8.8
2018-Jan-21 10:30N 33°46' E 131°38'5 9.7
2018-Jan-21 10:00N 33°47' E 131°32'5 9.8
2018-Jan-21 09:30N 33°48' E 131°26'510.0
2018-Jan-21 09:00N 33°49' E 131°21'510.4
2018-Jan-21 08:30N 33°51' E 131°15'510.3
2018-Jan-21 08:00N 33°53' E 131°09'510.9
2018-Jan-21 07:30N 33°56' E 131°04'5 9.5
2018-Jan-21 07:00N 33°58' E 130°59'5 9.4
2018-Jan-21 06:30N 33°54' E 130°55'4 7.3
2018-Jan-21 06:00N 33°57' E 130°52'4 8.1
2018-Jan-21 05:30N 34°01' E 130°51'510.1
2018-Jan-21 05:00N 34°04' E 130°47'5 9.7
2018-Jan-21 04:30N 34°08' E 130°43'5 9.9
2018-Jan-21 04:00N 34°13' E 130°41'510.0
2018-Jan-21 03:30N 34°17' E 130°39'510.3
2018-Jan-21 03:00N 34°22' E 130°37'510.5
2018-Jan-21 02:30N 34°27' E 130°35'610.5
2018-Jan-21 01:55N 34°33' E 130°32'  
2018-Jan-12 12:12N 34°34' E 130°32'2 9.2
2018-Jan-12 12:00N 34°32' E 130°33'5 9.3
2018-Jan-12 11:30N 34°27' E 130°35'5 9.8
2018-Jan-12 10:58N 34°23' E 130°37'5 9.7
2018-Jan-12 10:30N 34°18' E 130°39'5 9.5
2018-Jan-12 10:00N 34°14' E 130°41'5 9.1
2018-Jan-12 09:30N 34°10' E 130°43'5 9.4
2018-Jan-12 09:00N 34°05' E 130°45'5 9.8
2018-Jan-12 08:30N 34°02' E 130°49'5 9.3
2018-Jan-12 08:00N 33°58' E 130°53'4 8.5
2018-Jan-12 07:30N 33°54' E 130°55'4 8.8
2018-Jan-12 07:00N 33°58' E 130°58'3 6.9
2018-Jan-12 06:30N 33°58' E 131°02'510.6
2018-Jan-12 06:00N 33°55' E 131°07'510.3
2018-Jan-12 05:30N 33°52' E 131°12'510.6
2018-Jan-12 05:00N 33°51' E 131°19'510.9
2018-Jan-12 04:30N 33°50' E 131°25'510.7
2018-Jan-12 04:00N 33°49' E 131°31'510.5
2018-Jan-12 03:29N 33°47' E 131°38'510.0
2018-Jan-12 03:00N 33°46' E 131°43'6 9.7
2018-Jan-12 02:26N 33°41' E 131°46'4 9.9
2018-Jan-12 01:59N 33°37' E 131°49'5 9.9
2018-Jan-12 01:30N 33°33' E 131°51'8 9.9
2018-Jan-12 00:42N 33°26' E 131°56'3 9.6
2018-Jan-12 00:26N 33°24' E 131°57'4 8.7
2018-Jan-11 23:58N 33°20' E 131°60'4 8.4
2018-Jan-11 23:29N 33°17' E 132°02'6 9.2
2018-Jan-11 22:47N 33°11' E 132°06'  
Track history (hours):
 
Tides and Currents Weather Stations Pressure Air Temp Water Temp Dewpoint Dewpoint Depression Visibility Wind Speed Wind Dir Waves Ship Positions

Ji_gui

Last reported at 2018-Jan-21 15:00 UTC. Time now 2018-Jan-23 00:16 UTC.
Position N 33°12' E 132°05'.

Length 100 m; draft 5.9 m.

Type: Cargo ship. MMSI: 312889000.

Date/timePositionNaut miles runAvg speedWind from/ knotsBaromVisibWave heightAir tempDewpointWater temp
2018-Jan-21 15:00N 33°12' E 132°05'710.2
2018-Jan-21 14:19N 33°17' E 132°00'3 8.7
2018-Jan-21 13:56N 33°20' E 131°58'4 9.0
2018-Jan-21 13:30N 33°24' E 131°56'5 9.4
2018-Jan-21 13:00N 33°28' E 131°53'5 9.4
2018-Jan-21 12:30N 33°32' E 131°51'5 9.2
2018-Jan-21 12:00N 33°36' E 131°48'5 9.4
2018-Jan-21 11:30N 33°40' E 131°46'5 9.6
2018-Jan-21 11:00N 33°44' E 131°43'4 8.8
2018-Jan-21 10:30N 33°46' E 131°38'5 9.7
2018-Jan-21 10:00N 33°47' E 131°32'5 9.8
2018-Jan-21 09:30N 33°48' E 131°26'510.0
2018-Jan-21 09:00N 33°49' E 131°21'510.4
2018-Jan-21 08:30N 33°51' E 131°15'510.3
2018-Jan-21 08:00N 33°53' E 131°09'510.9
2018-Jan-21 07:30N 33°56' E 131°04'5 9.5
2018-Jan-21 07:00N 33°58' E 130°59'5 9.4
2018-Jan-21 06:30N 33°54' E 130°55'4 7.3
2018-Jan-21 06:00N 33°57' E 130°52'4 8.1
2018-Jan-21 05:30N 34°01' E 130°51'510.1
2018-Jan-21 05:00N 34°04' E 130°47'5 9.7
2018-Jan-21 04:30N 34°08' E 130°43'5 9.9
2018-Jan-21 04:00N 34°13' E 130°41'510.0
2018-Jan-21 03:30N 34°17' E 130°39'510.3
2018-Jan-21 03:00N 34°22' E 130°37'510.5
2018-Jan-21 02:30N 34°27' E 130°35'610.5
2018-Jan-21 01:55N 34°33' E 130°32'  
2018-Jan-12 12:12N 34°34' E 130°32'2 9.2
2018-Jan-12 12:00N 34°32' E 130°33'5 9.3
2018-Jan-12 11:30N 34°27' E 130°35'5 9.8
2018-Jan-12 10:58N 34°23' E 130°37'5 9.7
2018-Jan-12 10:30N 34°18' E 130°39'5 9.5
2018-Jan-12 10:00N 34°14' E 130°41'5 9.1
2018-Jan-12 09:30N 34°10' E 130°43'5 9.4
2018-Jan-12 09:00N 34°05' E 130°45'5 9.8
2018-Jan-12 08:30N 34°02' E 130°49'5 9.3
2018-Jan-12 08:00N 33°58' E 130°53'4 8.5
2018-Jan-12 07:30N 33°54' E 130°55'4 8.8
2018-Jan-12 07:00N 33°58' E 130°58'3 6.9
2018-Jan-12 06:30N 33°58' E 131°02'510.6
2018-Jan-12 06:00N 33°55' E 131°07'510.3
2018-Jan-12 05:30N 33°52' E 131°12'510.6
2018-Jan-12 05:00N 33°51' E 131°19'510.9
2018-Jan-12 04:30N 33°50' E 131°25'510.7
2018-Jan-12 04:00N 33°49' E 131°31'510.5
2018-Jan-12 03:29N 33°47' E 131°38'510.0
2018-Jan-12 03:00N 33°46' E 131°43'6 9.7
2018-Jan-12 02:26N 33°41' E 131°46'4 9.9
2018-Jan-12 01:59N 33°37' E 131°49'5 9.9
2018-Jan-12 01:30N 33°33' E 131°51'8 9.9
2018-Jan-12 00:42N 33°26' E 131°56'3 9.6
2018-Jan-12 00:26N 33°24' E 131°57'4 8.7
2018-Jan-11 23:58N 33°20' E 131°60'4 8.4
2018-Jan-11 23:29N 33°17' E 132°02'6 9.2
2018-Jan-11 22:47N 33°11' E 132°06'  

Dump ship's entire track history